Time;durP1;ratioP1;P1;durP2;ratioP2;P2;SDS_P1;SDS_P2;PMS_P1;PMS_P2;Temp;Humidity;BMP_temperature;BMP_pressure;BME280_temperature;BME280_humidity;BME280_pressure;Samples;Min_cycle;Max_cycle;Signal;HPM_P1;HPM_P2
2023/04/27 00:03:48;;;;;;;1.60;1.07;;;;;;;17.26;55.03;96671.28;10350966;28;20176;-26
2023/04/27 00:08:48;;;;;;;4.20;1.10;;;;;;;17.24;54.89;96667.91;10325297;28;20045;-25
2023/04/27 00:13:49;;;;;;;2.03;0.90;;;;;;;17.23;54.41;96671.28;10331775;28;20396;-26
2023/04/27 00:18:49;;;;;;;1.00;0.70;;;;;;;17.23;54.34;96666.25;10354290;28;20420;-26
2023/04/27 00:23:52;;;;;;;3.07;1.20;;;;;;;17.22;54.30;96670.44;10342657;28;20409;-26
2023/04/27 00:28:55;;;;;;;2.13;1.40;;;;;;;17.22;54.63;96670.44;10342825;28;20046;-25
2023/04/27 00:33:57;;;;;;;1.67;0.80;;;;;;;17.22;53.99;96662.00;10341197;28;20033;-26
2023/04/27 00:38:58;;;;;;;1.75;0.80;;;;;;;17.19;53.87;96654.41;10341511;28;20046;-27
2023/04/27 00:43:58;;;;;;;2.20;0.80;;;;;;;17.22;53.70;96659.47;10337870;28;20414;-26
2023/04/27 00:49:00;;;;;;;1.40;1.00;;;;;;;17.20;53.84;96656.94;10339041;28;20528;-26
2023/04/27 00:54:01;;;;;;;2.55;1.30;;;;;;;17.26;62.29;96649.34;10319027;28;20113;-25
2023/04/27 00:59:01;;;;;;;5.75;1.95;;;;;;;17.27;62.29;96645.16;10348849;28;20038;-26
2023/04/27 01:04:01;;;;;;;4.93;1.80;;;;;;;17.30;61.93;96642.63;10348284;28;20489;-26
2023/04/27 01:09:05;;;;;;;1.13;1.02;;;;;;;17.29;58.92;96651.91;10350901;28;20352;-25
2023/04/27 01:14:06;;;;;;;1.55;0.73;;;;;;;17.26;55.67;96661.19;10330457;28;20027;-25
2023/04/27 01:19:08;;;;;;;1.75;0.80;;;;;;;17.24;54.64;96662.88;10338696;28;20039;-25
2023/04/27 01:24:08;;;;;;;1.25;0.70;;;;;;;17.23;54.35;96662.00;10363180;28;20416;-26
2023/04/27 01:29:11;;;;;;;1.00;0.90;;;;;;;17.22;54.58;96662.00;10343016;28;20037;-28
2023/04/27 01:34:11;;;;;;;0.70;0.60;;;;;;;17.21;53.93;96663.69;10351600;28;20033;-29
2023/04/27 01:39:11;;;;;;;0.70;0.70;;;;;;;17.22;54.03;96659.47;10333665;28;20472;-28
2023/04/27 01:44:14;;;;;;;1.15;0.73;;;;;;;17.22;53.86;96664.50;10343592;28;20026;-28
2023/04/27 01:49:14;;;;;;;2.30;0.80;;;;;;;17.20;53.81;96664.53;10338940;28;20030;-29
2023/04/27 01:54:14;;;;;;;1.97;1.10;;;;;;;17.21;54.03;96662.84;10351357;28;20293;-28
2023/04/27 01:59:16;;;;;;;1.77;0.70;;;;;;;17.21;53.75;96660.31;10316039;28;20046;-28
2023/04/27 02:04:17;;;;;;;0.83;0.60;;;;;;;17.20;53.79;96651.03;10341142;28;20022;-28
2023/04/27 02:09:17;;;;;;;2.77;1.43;;;;;;;17.25;61.96;96649.38;10322072;28;20048;-28
2023/04/27 02:14:17;;;;;;;5.40;2.00;;;;;;;17.26;62.24;96651.88;10336702;28;20045;-28
2023/04/27 02:19:20;;;;;;;5.82;1.67;;;;;;;17.28;61.41;96644.31;10341172;28;20815;-28
2023/04/27 02:24:21;;;;;;;1.05;0.77;;;;;;;17.27;56.62;96657.81;10324295;28;20022;-28
2023/04/27 02:29:21;;;;;;;2.90;1.13;;;;;;;17.24;55.25;96657.81;10334964;28;20093;-29
2023/04/27 02:34:21;;;;;;;1.63;0.87;;;;;;;17.23;54.55;96661.19;10351285;28;20300;-29
2023/04/27 02:39:22;;;;;;;1.67;0.80;;;;;;;17.21;54.21;96660.31;10350701;28;20065;-28
2023/04/27 02:44:22;;;;;;;1.80;0.60;;;;;;;17.20;54.04;96661.16;10345576;28;20298;-29
2023/04/27 02:49:24;;;;;;;2.95;1.00;;;;;;;17.19;54.41;96654.41;10342159;28;20034;-28
2023/04/27 02:54:25;;;;;;;1.47;0.73;;;;;;;17.19;53.83;96659.47;10332941;28;20033;-28
2023/04/27 02:59:25;;;;;;;1.10;0.70;;;;;;;17.19;54.02;96654.41;10335712;28;20336;-29
2023/04/27 03:04:27;;;;;;;1.08;0.80;;;;;;;17.20;53.94;96666.22;10340551;28;20504;-28
2023/04/27 03:09:27;;;;;;;3.58;0.98;;;;;;;17.20;53.83;96666.22;10341304;28;20040;-29
2023/04/27 03:14:27;;;;;;;1.37;0.80;;;;;;;17.18;53.77;96662.84;10345996;28;20044;-29
2023/04/27 03:19:28;;;;;;;1.90;0.63;;;;;;;17.18;53.51;96678.00;10331580;28;20038;-28
2023/04/27 03:24:32;;;;;;;2.75;1.23;;;;;;;17.20;61.62;96671.25;10342034;28;20034;-28
2023/04/27 03:29:32;;;;;;;3.15;1.70;;;;;;;17.26;61.80;96686.47;10325357;28;20130;-28
2023/04/27 03:34:32;;;;;;;2.57;1.00;;;;;;;17.27;61.50;96678.91;10318257;28;20035;-28
2023/04/27 03:39:33;;;;;;;0.97;0.80;;;;;;;17.26;55.30;96669.59;10345445;28;20042;-29
2023/04/27 03:44:35;;;;;;;2.30;0.83;;;;;;;17.25;54.29;96667.09;10334095;28;20085;-29
2023/04/27 03:49:35;;;;;;;1.25;0.63;;;;;;;17.24;54.45;96663.69;10338632;28;20041;-30
2023/04/27 03:54:36;;;;;;;3.05;0.68;;;;;;;17.26;54.65;96673.81;10345285;28;20093;-28
2023/04/27 03:59:36;;;;;;;1.57;1.00;;;;;;;17.27;54.64;96672.97;10333932;28;20501;-28
2023/04/27 04:04:37;;;;;;;2.65;0.90;;;;;;;17.28;54.50;96674.66;10328647;28;20285;-28
2023/04/27 04:09:37;;;;;;;2.67;0.87;;;;;;;17.30;54.45;96678.03;10358023;28;20048;-28
2023/04/27 04:14:38;;;;;;;1.80;0.83;;;;;;;17.31;54.05;96667.13;10341963;28;20415;-28
2023/04/27 04:19:38;;;;;;;2.47;0.93;;;;;;;17.30;53.90;96670.44;10333167;28;20582;-28
2023/04/27 04:24:39;;;;;;;1.47;0.87;;;;;;;17.29;54.66;96667.09;10359192;28;20476;-28
2023/04/27 04:29:39;;;;;;;3.20;1.05;;;;;;;17.34;56.10;96674.69;10335635;28;20035;-28
2023/04/27 04:34:40;;;;;;;1.50;1.00;;;;;;;17.32;55.50;96687.34;10338945;28;20014;-27
2023/04/27 04:39:40;;;;;;;6.28;1.50;;;;;;;17.36;58.13;96683.16;10358820;28;20113;-28
2023/04/27 04:44:41;;;;;;;8.30;1.83;;;;;;;17.48;60.79;96678.16;10336238;28;20457;-28
2023/04/27 04:49:42;;;;;;;4.93;1.35;;;;;;;17.41;56.74;96676.44;10338105;28;20124;-28
2023/04/27 04:54:42;;;;;;;11.83;1.90;;;;;;;17.32;55.44;96677.22;10359420;28;20029;-28
2023/04/27 04:59:43;;;;;;;4.33;1.17;;;;;;;17.28;54.50;96674.66;10355659;28;20033;-28
2023/04/27 05:04:45;;;;;;;8.43;1.50;;;;;;;17.33;54.38;96681.44;10328135;28;20289;-28
2023/04/27 05:09:45;;;;;;;3.17;1.73;;;;;;;17.35;56.34;96673.88;10339391;28;20117;-28
2023/04/27 05:14:46;;;;;;;4.23;1.70;;;;;;;17.34;55.23;96675.53;10329364;28;20065;-28
2023/04/27 05:19:46;;;;;;;3.30;1.45;;;;;;;17.34;55.61;96678.06;10346428;28;20172;-28
2023/04/27 05:24:47;;;;;;;5.73;2.20;;;;;;;17.32;54.18;96691.56;10363263;28;20081;-28
2023/04/27 05:29:47;;;;;;;9.30;1.70;;;;;;;17.27;54.44;96693.22;10339503;28;20107;-28
2023/04/27 05:34:48;;;;;;;5.17;2.57;;;;;;;16.96;53.44;96689.72;10339743;28;20297;-28
2023/04/27 05:39:48;;;;;;;6.73;3.17;;;;;;;17.13;54.54;96694.84;10338775;28;20046;-27
2023/04/27 05:44:48;;;;;;;8.97;3.10;;;;;;;17.18;55.46;96704.16;10334526;28;20468;-28
2023/04/27 05:49:52;;;;;;;8.43;2.87;;;;;;;17.18;56.79;96704.16;10344851;28;20409;-28
2023/04/27 05:54:53;;;;;;;7.05;2.97;;;;;;;17.22;56.63;96710.91;10352003;28;20053;-28
2023/04/27 05:59:53;;;;;;;9.65;2.53;;;;;;;17.28;58.14;96720.22;10343712;28;20164;-28
2023/04/27 06:04:53;;;;;;;8.17;2.10;;;;;;;17.26;56.59;96726.97;10334250;28;20023;-28
2023/04/27 06:09:54;;;;;;;6.60;2.20;;;;;;;17.27;54.88;96723.59;10332123;28;20083;-28
2023/04/27 06:14:54;;;;;;;4.53;1.97;;;;;;;17.26;54.13;96742.13;10334249;28;20038;-28
2023/04/27 06:19:54;;;;;;;5.03;2.20;;;;;;;17.24;54.25;96738.75;10355007;28;20120;-29
2023/04/27 06:24:55;;;;;;;3.95;1.60;;;;;;;17.24;53.88;96738.75;10353191;28;20844;-28
2023/04/27 06:29:56;;;;;;;6.47;2.10;;;;;;;17.25;53.64;96753.09;10335952;28;20034;-28
2023/04/27 06:34:56;;;;;;;3.00;1.70;;;;;;;17.25;53.68;96745.50;10330093;28;20031;-28
2023/04/27 06:39:56;;;;;;;2.40;1.37;;;;;;;17.21;53.37;96743.78;10364401;28;20109;-28
2023/04/27 06:44:57;;;;;;;1.90;1.67;;;;;;;17.22;53.28;96750.53;10355229;28;20046;-29
2023/04/27 06:49:58;;;;;;;1.45;1.35;;;;;;;17.22;53.29;96746.34;10341949;28;20038;-29
2023/04/27 06:54:58;;;;;;;3.83;1.50;;;;;;;17.21;52.84;96748.84;10360254;28;20100;-27
2023/04/27 06:59:58;;;;;;;2.77;1.63;;;;;;;17.22;53.07;96755.59;10357741;28;20046;-30
2023/04/27 07:04:59;;;;;;;4.67;1.77;;;;;;;17.25;59.29;96760.69;10325627;28;20079;-28
2023/04/27 07:09:59;;;;;;;6.73;2.03;;;;;;;17.24;59.88;96754.78;10322218;28;20034;-28
2023/04/27 07:15:00;;;;;;;3.27;1.57;;;;;;;17.27;59.84;96753.94;10341667;28;20029;-28
2023/04/27 07:20:02;;;;;;;2.28;1.50;;;;;;;17.28;54.83;96748.91;10350428;28;20034;-28
2023/04/27 07:25:04;;;;;;;2.00;1.27;;;;;;;17.25;53.66;96748.03;10364912;28;20041;-28
2023/04/27 07:30:08;;;;;;;2.80;1.40;;;;;;;17.22;53.58;96745.47;10350969;28;20034;-27
2023/04/27 07:35:09;;;;;;;3.90;1.85;;;;;;;17.19;53.33;96745.47;10362451;28;20110;-28
2023/04/27 07:40:15;;;;;;;3.25;1.50;;;;;;;17.20;53.45;96742.09;10349530;28;20043;-29
2023/04/27 07:45:16;;;;;;;4.83;1.30;;;;;;;17.19;53.32;96745.47;10333575;28;20049;-28
2023/04/27 07:50:20;;;;;;;2.30;1.25;;;;;;;17.19;52.99;96730.28;10354664;28;20030;-28
2023/04/27 07:55:22;;;;;;;2.55;1.35;;;;;;;17.19;53.33;96737.88;10364823;28;20383;-29
2023/04/27 08:00:24;;;;;;;1.63;1.02;;;;;;;17.18;53.01;96731.13;10339001;28;20117;-28
2023/04/27 08:05:24;;;;;;;1.40;1.10;;;;;;;17.18;53.06;96728.59;10371362;28;20113;-28
2023/04/27 08:10:25;;;;;;;2.10;1.25;;;;;;;17.17;53.07;96731.97;10363363;28;20120;-28
2023/04/27 08:15:25;;;;;;;1.60;1.10;;;;;;;17.17;53.03;96731.97;10344918;28;20026;-28
2023/04/27 08:20:26;;;;;;;4.18;2.53;;;;;;;17.25;59.39;96732.88;10346435;28;20038;-28
2023/04/27 08:25:26;;;;;;;2.95;1.48;;;;;;;17.26;60.42;96726.97;10364175;28;20108;-28
2023/04/27 08:30:27;;;;;;;2.43;1.40;;;;;;;17.30;59.54;96728.66;10366944;28;20038;-28
2023/04/27 08:35:27;;;;;;;2.30;1.23;;;;;;;17.24;54.99;96719.34;10369560;28;20296;-28
2023/04/27 08:40:28;;;;;;;1.57;0.93;;;;;;;17.22;53.73;96720.19;10357083;28;20417;-28
2023/04/27 08:45:29;;;;;;;1.67;1.10;;;;;;;17.19;53.57;96715.97;10350208;28;20053;-28
2023/04/27 08:50:30;;;;;;;1.97;1.27;;;;;;;17.18;53.79;96710.91;10353108;28;20044;-28
2023/04/27 08:55:30;;;;;;;1.48;1.00;;;;;;;17.15;53.80;96706.66;10333867;28;20038;-28
2023/04/27 09:00:40;;;;;;;2.40;1.30;;;;;;;17.15;53.59;96705.84;10367708;28;20041;-28
2023/04/27 09:05:46;;;;;;;1.45;0.90;;;;;;;17.16;53.47;96705.81;10336379;28;20344;-28
2023/04/27 09:10:49;;;;;;;1.30;1.00;;;;;;;17.15;53.13;96708.38;10348065;28;20452;-32
2023/04/27 09:15:51;;;;;;;1.58;0.85;;;;;;;17.14;53.15;96721.84;10336866;28;20034;-31
2023/04/27 09:20:52;;;;;;;1.27;0.90;;;;;;;17.15;53.11;96728.59;10334460;28;20085;-30
2023/04/27 09:25:55;;;;;;;2.45;1.33;;;;;;;17.13;52.80;96720.13;10339419;28;20511;-31
2023/04/27 09:31:00;;;;;;;1.35;0.93;;;;;;;17.15;53.07;96718.47;10340881;28;20503;-30
2023/04/27 09:36:03;;;;;;;2.60;1.30;;;;;;;17.28;59.01;96712.63;10340002;28;20160;-30
2023/04/27 09:41:04;;;;;;;1.45;1.10;;;;;;;17.29;60.12;96711.78;10368080;28;20440;-31
2023/04/27 09:46:05;;;;;;;1.52;1.15;;;;;;;17.30;58.62;96718.53;10330272;28;20019;-31
2023/04/27 09:51:05;;;;;;;1.35;0.98;;;;;;;17.24;54.71;96713.47;10361183;28;20089;-31
2023/04/27 09:56:30;;;;;;;1.38;1.02;;;;;;;17.20;53.96;96704.16;10338272;28;20026;-31
2023/04/27 10:01:44;;;;;;;1.73;0.98;;;;;;;17.16;53.94;96700.75;10340983;28;20042;-30
2023/04/27 10:07:11;;;;;;;0.88;0.60;;;;;;;17.17;53.71;96706.69;10341884;28;20054;-31
2023/04/27 10:12:41;;;;;;;2.08;1.00;;;;;;;17.15;53.63;96690.66;10322307;28;20465;-30
2023/04/27 10:17:50;;;;;;;1.02;0.75;;;;;;;17.16;53.44;96697.41;10340948;28;20455;-31
2023/04/27 10:22:51;;;;;;;1.27;0.68;;;;;;;17.23;53.22;96696.59;10317779;28;20043;-30
2023/04/27 10:28:01;;;;;;;1.00;0.77;;;;;;;17.24;52.97;96709.22;10330160;28;20030;-31
2023/04/27 10:33:06;;;;;;;1.05;0.95;;;;;;;17.24;52.85;96701.63;10353417;28;20034;-31
2023/04/27 10:38:20;;;;;;;1.05;0.80;;;;;;;17.24;52.89;96704.16;10329416;28;20045;-29
2023/04/27 10:43:25;;;;;;;2.10;0.88;;;;;;;17.23;52.95;96705.00;10339689;28;20029;-30
2023/04/27 10:48:29;;;;;;;2.30;1.63;;;;;;;17.34;57.45;96695.78;10331470;28;20064;-30
2023/04/27 10:53:36;;;;;;;2.60;1.60;;;;;;;17.45;58.12;96694.19;10344213;28;20061;-30
2023/04/27 10:58:37;;;;;;;2.95;1.77;;;;;;;17.43;57.55;96695.00;10342667;28;20089;-30
2023/04/27 11:03:37;;;;;;;3.03;1.10;;;;;;;17.35;54.21;96678.91;10322688;28;20434;-30
2023/04/27 11:08:44;;;;;;;1.55;1.20;;;;;;;17.28;53.66;96694.91;10346640;28;20515;-31
2023/04/27 11:13:47;;;;;;;1.17;0.88;;;;;;;17.26;53.79;96683.94;10346163;28;20154;-31
2023/04/27 11:18:48;;;;;;;2.95;0.90;;;;;;;17.20;53.45;96678.84;10305100;28;20034;-31
2023/04/27 11:23:48;;;;;;;2.60;1.37;;;;;;;17.23;53.55;96673.81;10313157;28;20038;-30
2023/04/27 11:28:59;;;;;;;1.80;1.20;;;;;;;17.22;53.35;96672.09;10315338;28;20292;-30
2023/04/27 11:33:59;;;;;;;2.20;1.80;;;;;;;17.17;53.21;96659.44;10331994;28;20040;-31
2023/04/27 11:39:00;;;;;;;9.57;3.38;;;;;;;17.30;56.17;96658.66;10325142;28;20386;-30
2023/04/27 11:44:06;;;;;;;7.53;1.67;;;;;;;17.26;54.13;96656.94;10315396;28;20444;-31
2023/04/27 11:49:09;;;;;;;5.13;1.37;;;;;;;17.23;53.77;96656.13;10326673;28;20034;-30
2023/04/27 11:54:10;;;;;;;7.82;1.48;;;;;;;17.21;53.37;96662.84;10339531;28;20048;-31
2023/04/27 11:59:19;;;;;;;8.55;3.72;;;;;;;17.23;57.51;96658.66;10323737;28;20043;-31
2023/04/27 12:04:19;;;;;;;6.55;3.85;;;;;;;17.39;59.11;96652.81;10316292;28;20030;-31
2023/04/27 12:09:21;;;;;;;9.57;3.90;;;;;;;17.44;59.63;96652.00;10337244;28;20395;-31
2023/04/27 12:14:21;;;;;;;10.75;3.58;;;;;;;17.37;56.00;96657.03;10353996;28;20451;-31
2023/04/27 12:19:24;;;;;;;7.88;1.95;;;;;;;17.32;54.36;96646.03;10338307;28;20042;-32
2023/04/27 12:24:24;;;;;;;4.50;2.33;;;;;;;17.30;53.91;96648.53;10346677;28;20046;-30
2023/04/27 12:29:25;;;;;;;5.87;1.50;;;;;;;17.30;53.60;96643.47;10324886;28;20034;-31
2023/04/27 12:34:27;;;;;;;3.22;1.60;;;;;;;17.27;53.90;96643.47;10349392;28;20504;-32
2023/04/27 12:39:27;;;;;;;2.65;1.65;;;;;;;17.27;53.74;96642.63;10353643;28;20046;-31
2023/04/27 12:44:28;;;;;;;5.27;2.37;;;;;;;17.26;53.83;96651.06;10331592;28;20547;-30
2023/04/27 12:49:28;;;;;;;4.93;2.13;;;;;;;17.26;53.66;96651.06;10323658;28;20117;-30
2023/04/27 12:54:28;;;;;;;3.77;1.80;;;;;;;17.27;53.56;96647.69;10351482;28;20046;-31
2023/04/27 12:59:29;;;;;;;4.33;2.43;;;;;;;17.26;53.57;96656.13;10329743;28;20312;-31
2023/04/27 13:04:30;;;;;;;4.53;2.30;;;;;;;17.23;53.39;96635.88;10325499;28;20806;-30
2023/04/27 13:09:30;;;;;;;7.32;3.78;;;;;;;17.22;53.85;96646.81;10351319;28;20042;-31
2023/04/27 13:14:32;;;;;;;9.73;3.23;;;;;;;17.30;59.21;96640.94;10346694;28;20507;-30
2023/04/27 13:19:32;;;;;;;7.90;3.67;;;;;;;17.42;59.61;96642.72;10326545;28;20146;-30
2023/04/27 13:24:32;;;;;;;8.03;3.70;;;;;;;17.45;60.25;96646.09;10333536;28;20215;-31
2023/04/27 13:29:33;;;;;;;12.23;3.37;;;;;;;17.38;56.46;96635.94;10317140;28;20568;-31
2023/04/27 13:34:33;;;;;;;8.43;4.30;;;;;;;17.30;54.67;96632.50;10347121;28;20034;-31
2023/04/27 13:39:33;;;;;;;14.07;4.20;;;;;;;17.27;54.91;96627.44;10347146;28;20049;-32
2023/04/27 13:44:34;;;;;;;7.40;3.43;;;;;;;17.23;54.86;96620.69;10321004;28;20294;-30
2023/04/27 13:49:34;;;;;;;6.47;3.03;;;;;;;17.23;54.62;96605.53;10330656;28;20290;-31
2023/04/27 13:54:35;;;;;;;14.07;3.63;;;;;;;17.20;55.13;96610.56;10345142;28;20034;-30
2023/04/27 13:59:35;;;;;;;8.23;3.55;;;;;;;17.20;54.59;96619.00;10331157;28;20046;-32
2023/04/27 14:04:36;;;;;;;5.33;2.53;;;;;;;17.19;54.12;96619.84;10337520;28;20510;-31
2023/04/27 14:09:36;;;;;;;6.47;2.60;;;;;;;17.17;53.94;96606.31;10361977;28;20030;-31
2023/04/27 14:14:37;;;;;;;11.40;2.90;;;;;;;17.16;53.95;96608.88;10327323;28;20117;-30
2023/04/27 14:19:37;;;;;;;14.55;3.28;;;;;;;17.12;57.85;96602.09;10316216;28;20037;-31
2023/04/27 14:24:38;;;;;;;28.33;4.20;;;;;;;17.18;55.73;96607.19;10357914;28;20033;-31
2023/04/27 14:29:38;;;;;;;11.52;2.65;;;;;;;17.26;59.55;96603.81;10326091;28;20501;-31
2023/04/27 14:34:38;;;;;;;12.90;3.43;;;;;;;17.31;59.95;96594.56;10340639;28;20029;-30
2023/04/27 14:39:39;;;;;;;16.23;4.00;;;;;;;17.33;59.78;96592.88;10336943;28;20276;-30
2023/04/27 14:44:39;;;;;;;12.60;3.50;;;;;;;17.29;56.94;96587.81;10340738;28;20284;-31
2023/04/27 14:49:39;;;;;;;6.18;3.20;;;;;;;17.27;58.11;96595.41;10331962;28;20033;-31
2023/04/27 14:54:41;;;;;;;10.98;2.92;;;;;;;17.29;57.82;96591.19;10340086;28;20046;-30
2023/04/27 14:59:41;;;;;;;12.00;3.10;;;;;;;17.37;57.90;96593.75;10320273;28;20526;-30
2023/04/27 15:04:42;;;;;;;8.53;2.57;;;;;;;17.43;58.23;96588.72;10322493;28;20301;-31
2023/04/27 15:09:42;;;;;;;12.13;2.87;;;;;;;17.50;58.34;96576.06;10343656;28;20049;-30
2023/04/27 15:14:42;;;;;;;7.57;3.10;;;;;;;17.60;57.99;96582.00;10338828;28;20031;-30
2023/04/27 15:19:43;;;;;;;8.93;3.03;;;;;;;17.62;58.39;96576.09;10299660;28;20038;-30
2023/04/27 15:24:43;;;;;;;8.27;3.50;;;;;;;17.67;58.29;96573.56;10350853;28;20038;-30
2023/04/27 15:29:43;;;;;;;11.77;4.07;;;;;;;17.68;58.60;96565.97;10320365;28;20042;-30
2023/04/27 15:34:44;;;;;;;4.97;2.17;;;;;;;17.77;58.25;96562.59;10358475;28;20296;-32
2023/04/27 15:39:45;;;;;;;9.23;3.15;;;;;;;17.93;58.08;96551.63;10343857;28;20293;-30
2023/04/27 15:44:45;;;;;;;10.05;3.13;;;;;;;17.96;57.93;96556.69;10326278;28;20036;-30
2023/04/27 15:49:46;;;;;;;9.97;3.30;;;;;;;17.93;58.38;96551.63;10349310;28;20037;-30
2023/04/27 15:54:46;;;;;;;10.33;3.13;;;;;;;17.91;58.44;96548.25;10344620;28;20181;-30
2023/04/27 15:59:47;;;;;;;10.45;2.65;;;;;;;17.89;58.86;96539.78;10342174;28;20032;-31
2023/04/27 16:04:48;;;;;;;9.80;2.80;;;;;;;17.80;59.28;96534.72;10340849;28;20027;-30
2023/04/27 16:09:48;;;;;;;10.73;2.85;;;;;;;17.76;59.66;96528.00;10340673;28;20049;-31
2023/04/27 16:14:50;;;;;;;16.00;3.60;;;;;;;17.64;59.49;96520.38;10349848;28;20041;-31
2023/04/27 16:19:51;;;;;;;10.20;3.00;;;;;;;17.67;58.16;96518.69;10345416;28;20496;-32
2023/04/27 16:24:51;;;;;;;12.80;3.20;;;;;;;17.63;59.40;96521.22;10364877;28;20121;-31
2023/04/27 16:29:51;;;;;;;7.97;2.63;;;;;;;17.58;60.03;96523.75;10320933;28;20034;-31
2023/04/27 16:34:54;;;;;;;7.63;2.73;;;;;;;17.58;60.08;96522.94;10340073;28;20298;-31
2023/04/27 16:39:58;;;;;;;17.13;3.45;;;;;;;17.58;60.18;96517.88;10363815;28;20045;-31
2023/04/27 16:45:00;;;;;;;7.57;2.83;;;;;;;17.59;60.06;96515.31;10329423;28;20096;-31
2023/04/27 16:50:01;;;;;;;4.93;2.55;;;;;;;17.56;59.70;96511.97;10333268;28;20045;-30
2023/04/27 16:55:02;;;;;;;12.55;2.85;;;;;;;17.58;61.36;96518.69;10347694;28;20120;-30
2023/04/27 17:00:05;;;;;;;8.15;2.90;;;;;;;17.57;61.49;96522.09;10343837;28;20030;-31
2023/04/27 17:05:06;;;;;;;7.47;2.33;;;;;;;17.57;58.77;96522.09;10332616;28;20509;-32
2023/04/27 17:10:08;;;;;;;6.65;2.17;;;;;;;17.56;57.88;96524.63;10335157;28;20031;-31
2023/04/27 17:15:10;;;;;;;5.10;2.47;;;;;;;17.55;56.88;96533.03;10311022;28;20390;-30
2023/04/27 17:20:11;;;;;;;7.80;2.28;;;;;;;17.53;57.14;96530.53;10340610;28;20026;-30
2023/04/27 17:25:12;;;;;;;4.03;1.75;;;;;;;17.49;56.83;96535.59;10333921;28;20030;-30
2023/04/27 17:30:12;;;;;;;10.30;2.13;;;;;;;17.47;56.80;96534.72;10344462;28;20032;-30
2023/04/27 17:35:13;;;;;;;2.88;1.60;;;;;;;17.46;56.52;96530.50;10333582;28;20807;-30
2023/04/27 17:40:18;;;;;;;3.90;1.63;;;;;;;17.43;56.11;96535.56;10350327;28;20496;-31
2023/04/27 17:45:18;;;;;;;3.95;1.65;;;;;;;17.42;56.00;96536.41;10326843;28;20061;-31
2023/04/27 17:50:19;;;;;;;3.90;1.95;;;;;;;17.41;56.18;96544.84;10340880;28;20488;-31
2023/04/27 17:55:20;;;;;;;2.95;1.50;;;;;;;17.40;56.14;96550.78;10336502;28;20038;-31
2023/04/27 18:00:21;;;;;;;3.35;1.73;;;;;;;17.40;55.93;96538.13;10335880;28;20073;-31
2023/04/27 18:05:21;;;;;;;5.07;2.53;;;;;;;17.48;60.76;96541.50;10313547;28;20080;-31
2023/04/27 18:10:22;;;;;;;7.78;2.47;;;;;;;17.52;61.56;96522.94;10336934;28;20116;-31
2023/04/27 18:15:22;;;;;;;7.65;2.78;;;;;;;17.51;61.27;96522.06;10339948;28;20038;-31
2023/04/27 18:20:23;;;;;;;3.53;1.85;;;;;;;17.46;57.29;96507.72;10331465;28;20045;-31
2023/04/27 18:25:23;;;;;;;4.80;1.60;;;;;;;17.40;56.12;96516.16;10333975;28;20040;-30
2023/04/27 18:30:23;;;;;;;3.07;1.40;;;;;;;17.37;56.07;96512.78;10335521;28;20296;-31
2023/04/27 18:35:24;;;;;;;3.00;1.17;;;;;;;17.36;55.92;96516.16;10337077;28;20038;-31
2023/04/27 18:40:24;;;;;;;4.25;1.58;;;;;;;17.34;55.82;96522.88;10327268;28;20038;-31
2023/04/27 18:45:25;;;;;;;2.97;1.50;;;;;;;17.33;55.34;96528.78;10326641;28;20117;-31
2023/04/27 18:50:26;;;;;;;4.40;1.40;;;;;;;17.33;55.43;96533.84;10331714;28;20036;-30
2023/04/27 18:55:26;;;;;;;1.20;1.10;;;;;;;17.30;55.38;96537.22;10335179;28;20049;-30
2023/04/27 19:00:27;;;;;;;1.70;1.05;;;;;;;17.30;55.33;96542.28;10344289;28;20505;-30
2023/04/27 19:05:27;;;;;;;1.85;1.30;;;;;;;17.30;55.21;96543.94;10328196;28;20038;-30
2023/04/27 19:10:28;;;;;;;1.50;1.33;;;;;;;17.28;55.35;96533.84;10318026;28;20501;-30
2023/04/27 19:15:28;;;;;;;6.18;1.45;;;;;;;17.32;57.46;96539.75;10309859;28;20042;-30
2023/04/27 19:20:29;;;;;;;6.10;1.75;;;;;;;17.43;61.25;96548.22;10320476;28;20061;-31
2023/04/27 19:25:29;;;;;;;5.47;1.80;;;;;;;17.48;61.47;96554.16;10333108;28;20042;-31
2023/04/27 19:30:30;;;;;;;2.80;1.10;;;;;;;17.47;57.20;96547.38;10323870;28;20358;-31
2023/04/27 19:35:30;;;;;;;2.88;1.30;;;;;;;17.46;56.34;96544.03;10329291;28;20048;-31
2023/04/27 19:40:33;;;;;;;3.17;1.20;;;;;;;17.49;56.45;96555.84;10334906;28;20408;-31
2023/04/27 19:45:33;;;;;;;3.90;1.30;;;;;;;17.50;56.13;96553.28;10335257;28;20042;-31
2023/04/27 19:50:37;;;;;;;4.50;1.67;;;;;;;17.48;56.09;96557.50;10325574;28;20042;-31
2023/04/27 19:55:39;;;;;;;2.15;1.33;;;;;;;17.48;56.64;96551.63;10318523;28;20043;-31
2023/04/27 20:00:39;;;;;;;4.25;1.50;;;;;;;17.47;56.00;96549.91;10333396;28;20042;-30
2023/04/27 20:05:41;;;;;;;3.43;0.97;;;;;;;17.43;55.77;96558.34;10342687;28;20042;-30
2023/04/27 20:10:41;;;;;;;6.57;1.27;;;;;;;17.46;55.62;96559.19;10322779;28;20046;-32
2023/04/27 20:15:42;;;;;;;2.63;1.10;;;;;;;17.44;55.65;96555.84;10323685;28;20405;-31
2023/04/27 20:20:42;;;;;;;3.40;1.33;;;;;;;17.42;55.75;96554.13;10316784;28;20281;-31
2023/04/27 20:25:42;;;;;;;2.93;1.30;;;;;;;17.42;55.56;96549.91;10310859;28;20560;-31
2023/04/27 20:30:43;;;;;;;5.03;1.43;;;;;;;17.48;60.85;96549.09;10324595;28;20558;-31
2023/04/27 20:35:45;;;;;;;4.97;1.80;;;;;;;17.50;61.47;96549.94;10324760;28;20125;-30
2023/04/27 20:40:46;;;;;;;3.35;1.35;;;;;;;17.51;61.20;96542.31;10327288;28;20042;-31
2023/04/27 20:45:46;;;;;;;2.20;1.25;;;;;;;17.49;56.78;96530.53;10325131;28;20469;-30
2023/04/27 20:50:46;;;;;;;4.83;1.23;;;;;;;17.48;55.82;96526.31;10314969;28;20043;-30
2023/04/27 20:55:47;;;;;;;2.65;0.98;;;;;;;17.45;55.70;96528.81;10321854;28;20412;-30
2023/04/27 21:00:47;;;;;;;2.97;1.23;;;;;;;17.43;55.67;96528.84;10326950;28;20108;-31
2023/04/27 21:05:48;;;;;;;2.60;1.08;;;;;;;17.41;55.39;96535.56;10322148;28;20053;-31
2023/04/27 21:10:48;;;;;;;1.23;0.80;;;;;;;17.42;55.70;96546.53;10349318;28;20044;-30
2023/04/27 21:15:48;;;;;;;1.50;1.07;;;;;;;17.41;55.55;96533.03;10361409;28;20046;-31
2023/04/27 21:20:49;;;;;;;2.00;1.03;;;;;;;17.41;55.29;96532.22;10335625;28;20392;-31
2023/04/27 21:25:49;;;;;;;1.40;1.10;;;;;;;17.40;55.22;96513.63;10356580;28;20550;-30
2023/04/27 21:30:50;;;;;;;2.57;0.60;;;;;;;17.40;55.26;96512.81;10324372;28;20038;-30
2023/04/27 21:35:50;;;;;;;1.77;0.97;;;;;;;17.39;55.16;96494.25;10332767;28;20039;-30
2023/04/27 21:40:50;;;;;;;1.53;1.27;;;;;;;17.39;55.66;96486.66;10338567;28;20304;-31
2023/04/27 21:45:51;;;;;;;5.27;1.67;;;;;;;17.41;61.77;96474.84;10326958;28;20050;-31
2023/04/27 21:50:51;;;;;;;2.53;1.33;;;;;;;17.46;61.69;96482.41;10331377;28;20042;-30
2023/04/27 21:55:54;;;;;;;3.43;1.37;;;;;;;17.45;60.00;96484.13;10346905;28;20034;-31
2023/04/27 22:00:55;;;;;;;2.10;1.05;;;;;;;17.40;56.12;96474.84;10338651;28;20045;-30
2023/04/27 22:05:56;;;;;;;1.00;0.80;;;;;;;17.40;55.57;96467.25;10331350;28;20401;-30
2023/04/27 22:10:57;;;;;;;2.00;0.90;;;;;;;17.38;55.69;96469.78;10361900;28;20335;-30
2023/04/27 22:15:57;;;;;;;1.07;0.90;;;;;;;17.38;55.56;96473.97;10339035;28;20045;-31
2023/04/27 22:20:58;;;;;;;1.67;0.90;;;;;;;17.38;55.21;96473.97;10321757;28;20412;-31
2023/04/27 22:25:58;;;;;;;2.38;0.90;;;;;;;17.37;55.43;96462.19;10353768;28;20038;-30
2023/04/27 22:30:59;;;;;;;2.87;1.40;;;;;;;17.36;55.12;96470.63;10342252;28;20496;-31
2023/04/27 22:36:00;;;;;;;0.80;0.77;;;;;;;17.35;54.93;96473.97;10322039;28;20038;-31
2023/04/27 22:41:00;;;;;;;2.08;1.00;;;;;;;17.34;54.95;96462.16;10352897;28;20077;-31
2023/04/27 22:46:00;;;;;;;1.30;0.97;;;;;;;17.33;54.85;96461.28;10342394;28;20093;-31
2023/04/27 22:51:01;;;;;;;1.63;0.80;;;;;;;17.33;55.11;96458.78;10345056;28;20512;-31
2023/04/27 22:56:02;;;;;;;3.90;1.20;;;;;;;17.40;60.65;96477.38;10328324;28;20301;-31
2023/04/27 23:01:02;;;;;;;2.95;1.58;;;;;;;17.41;62.05;96463.88;10359140;28;20085;-31
2023/04/27 23:06:04;;;;;;;1.65;1.00;;;;;;;17.43;60.91;96459.66;10320491;28;20037;-31
2023/04/27 23:11:04;;;;;;;2.10;1.00;;;;;;;17.38;56.37;96463.84;10335449;28;20127;-31
2023/04/27 23:16:08;;;;;;;1.13;0.83;;;;;;;17.33;55.78;96452.88;10309395;28;20040;-30
2023/04/27 23:21:10;;;;;;;1.30;0.73;;;;;;;17.34;54.87;96452.03;10334358;28;20546;-31